METAR、SPECI、TAF(飛行場実況・予報)


■ METAR、SPECI(飛行場実況)

METAR RJEC 111900Z AUTO 22002KT 9999 FEW042 BKN100 14/13 Q1007 RMK A2976
METAR RJEC 112000Z AUTO 15005KT 9999 NCD 14/13 Q1007 RMK A2975
METAR RJEC 112100Z AUTO 16007KT 9999 NCD 17/15 Q1007 RMK A2974
METAR RJEC 112200Z AUTO 18009KT 9999 NCD 19/15 Q1007 RMK A2974
METAR RJEC 112300Z 17012KT 9999 FEW020 BKN/// 21/15 Q1006 RMK 1CU020 A2973
METAR RJEC 120000Z 17010KT 9999 FEW030 BKN/// 23/16 Q1005 RMK 1CU030 A2970
METAR RJEC 120100Z 18008KT 140V220 9999 FEW030 SCT130 BKN/// 24/15 Q1005 RMK 1CU030 3AC130 A2969
METAR RJEC 120200Z 21006KT 160V250 9999 FEW030 SCT120 BKN/// 25/15 Q1005 RMK 1CU030 3AC120 A2968
METAR RJEC 120300Z 23009KT 180V270 9999 FEW030 SCT130 BKN/// 26/14 Q1005 RMK 1CU030 3AC130 A2968
METAR RJEC 120400Z 18005KT 150V240 9999 FEW030 SCT050 BKN/// 26/15 Q1004 RMK 1CU030 3CU050 A2967
METAR RJEC 120500Z 20006KT 160V240 9999 FEW030 SCT050 BKN080 26/14 Q1003 RMK 1CU030 3CU050 5AC080 A2964
METAR RJEC 120600Z 22007KT 9999 FEW050 SCT070 BKN/// 27/15 Q1003 RMK 1CU050 3AC070 A2964
METAR RJEC 120700Z 22006KT 190V280 9999 FEW050 BKN/// 27/15 Q1003 RMK 2CU050 A2963
METAR RJEC 120800Z 22007KT 180V250 9999 FEW030 SCT050 BKN/// 26/16 Q1003 RMK 1CU030 3CU050 A2962
METAR RJEC 120900Z 20007KT 9999 FEW030 SCT/// 25/15 Q1003 RMK 1CU030 A2962
METAR RJEC 121000Z 18009KT 9999 FEW040 SCT/// 23/14 Q1003 RMK 1CU040 A2962
METAR RJEC 121100Z 17010KT 9999 FEW020 SCT070 21/14 Q1003 RMK 1CU020 3AC070 A2963
METAR RJEC 121200Z AUTO 17011KT 9999 OVC070 21/15 Q1003 RMK A2964
METAR RJEC 121300Z AUTO 17014KT 9999 OVC070 20/15 Q1003 RMK A2964
METAR RJEC 121400Z AUTO 17011KT 9999 FEW041 BKN043 19/16 Q1003 RMK A2964
METAR RJEC 121500Z AUTO 16011KT 9999 NSC 19/15 Q1003 RMK A2963
METAR RJEC 121600Z AUTO 16006KT 9999 NCD 18/15 Q1003 RMK A2962
METAR RJEC 121700Z AUTO 16008KT 9999 NCD 18/15 Q1002 RMK A2961
METAR RJEC 121800Z AUTO 17006KT 9999 NSC 17/15 Q1002 RMK A2961
METAR RJEC 121900Z AUTO 17007KT 9999 BKN048 BKN240 17/15 Q1003 RMK A2962
METAR RJEC 122000Z AUTO VRB02KT 9999 OVC044 17/15 Q1003 RMK A2964
METAR RJEC 122100Z AUTO 35005KT 9999 BKN041 OVC044 18/16 Q1003 RMK A2964
METAR RJEC 122200Z AUTO 04003KT 010V070 9999 OVC043 19/16 Q1004 RMK A2966
METAR RJEC 122300Z 36004KT 320V020 9999 FEW010 SCT025 BKN040 20/16 Q1004 RMK 1ST010 3CU025 6SC040 A2965
METAR RJEC 130000Z VRB03KT 9999 FEW008 SCT025 BKN040 21/16 Q1003 RMK 1ST008 3CU025 5CU040 A2964
METAR RJEC 130100Z VRB02KT 9999 -SHRA FEW005 SCT020 BKN040 22/16 Q1004 RMK 1ST005 3CU020 5CU040 A2965
METAR RJEC 130200Z VRB02KT 9999 -SHRA FEW005 SCT015 BKN040 21/17 Q1004 RMK 1ST005 3ST015 5CU040 A2965
METAR RJEC 130300Z 34007KT 9999 -SHRA FEW005 SCT020 BKN040 21/18 Q1004 RMK 1ST005 3CU020 6CU040 A2965
METAR RJEC 130400Z 04007KT 9999 -SHRA FEW005 SCT020 FEW025CB BKN040 22/18 Q1003 RMK 1ST005 3CU020 1CB025 6CU040 A2963 CB SE
METAR RJEC 130500Z 01006KT 330V040 9999 FEW008 SCT020 BKN040 22/18 Q1003 RMK 1ST008 3CU020 5CU040 A2962
METAR RJEC 130600Z 36006KT 320V040 9999 FEW005 SCT015 BKN040 22/18 Q1002 RMK 1ST005 3ST015 5CU040 A2961
METAR RJEC 130700Z 35007KT 9999 FEW005 SCT040 BKN100 22/18 Q1003 RMK 1ST005 3CU040 5AC100 A2962
METAR RJEC 130700Z 35007KT 9999 FEW005 SCT040 BKN100 22/18 Q1003 RMK 1ST005 3CU040 5AC100 A2962
METAR RJEC 130800Z 02007KT 9999 FEW004 SCT012 BKN020 22/18 Q1003 RMK 1ST004 4ST012 5CU020 A2962
METAR RJEC 130900Z 01006KT 9999 FEW006 SCT015 BKN040 21/17 Q1003 RMK 1ST006 4ST015 5CU040 A2963
METAR RJEC 131000Z 36007KT 9999 FEW008 SCT015 BKN040 20/17 Q1003 RMK 1ST008 4ST015 5CU040 A2964
METAR RJEC 131100Z 32005KT 9999 FEW005 SCT012 BKN020 18/16 Q1004 RMK 1ST005 4ST012 5CU020 A2967
METAR RJEC 131200Z AUTO 34007KT 9999 OVC018 //////TCU 17/15 Q1005 RMK A2968 TCU 20KM S STNR AND 25KM SE MOV E
METAR RJEC 131300Z AUTO 33006KT 9999 FEW021 SCT023 OVC026 //////TCU 16/14 Q1005 RMK A2968 TCU 20KM S MOV UNKNOWN
METAR RJEC 131400Z AUTO VRB02KT 9999 SCT027 BKN029 BKN032 //////TCU 16/14 Q1005 RMK A2968 TCU 35KM S MOV UNKNOWN
METAR RJEC 131500Z AUTO 00000KT 9999 SCT008 OVC027 16/15 Q1005 RMK A2968
METAR RJEC 131600Z AUTO 01005KT 9999 -RA FEW008 SCT022 OVC026 //////TCU 16/15 Q1005 RMK A2968 TCU 30KM E MOV UNKNOWN
METAR RJEC 131700Z AUTO 34004KT 9999 FEW009 BKN021 OVC023 15/14 Q1005 RMK A2970
METAR RJEC 131800Z AUTO 36006KT 9999 BKN007 OVC010 15/13 Q1006 RMK A2971
METAR RJEC 131900Z AUTO 30002KT 9999 SCT008 OVC010 14/13 Q1005 RMK A2970
METAR RJEC 132000Z AUTO 32004KT 9999 OVC008 15/13 Q1006 RMK A2972
METAR RJEC 132100Z AUTO 34004KT 9999 SCT005 OVC007 15/13 Q1007 RMK A2974
METAR RJEC 132200Z AUTO 36004KT 320V040 9999 OVC008 15/13 Q1007 RMK A2975
SPECI RJEC 132246Z AUTO 32003KT 9999 OVC007 15/13 Q1007 RMK A2975
METAR RJEC 132300Z VRB01KT 9999 FEW003 BKN009 15/13 Q1007 RMK 1ST003 7ST009 A2975
SPECI RJEC 132323Z 32004KT 290V350 9999 FEW005 BKN010 BKN015 16/13 Q1007 RMK 1ST005 5ST010 6ST015 A2974
METAR RJEC 140000Z VRB02KT 9999 FEW006 BKN012 BKN017 16/13 Q1007 RMK 1ST006 5ST012 6ST017 A2976
METAR RJEC 140100Z 05003KT 010V120 9999 FEW008 BKN013 BKN018 17/14 Q1008 RMK 1ST008 5ST013 6ST018 A2977
METAR RJEC 140200Z 36003KT 300V050 9999 FEW010 SCT020 BKN040 19/15 Q1008 RMK 1ST010 3CU020 5CU040 A2978
METAR RJEC 140300Z VRB02KT 9999 FEW020 SCT040 21/17 Q1007 RMK 1CU020 4CU040 A2976
METAR RJEC 140400Z VRB03KT 9999 FEW020 SCT030 23/17 Q1007 RMK 1CU020 3CU030 A2974
METAR RJEC 140500Z 32004KT 270V030 9999 FEW020 SCT030 24/17 Q1007 RMK 1CU020 3CU030 A2974
METAR RJEC 140600Z 32007KT 9999 FEW025 BKN040 24/17 Q1007 RMK 1CU025 5CU040 A2974
METAR RJEC 140700Z 29007KT 240V320 9999 FEW025 SCT050 24/16 Q1007 RMK 1CU025 4CU050 A2974
METAR RJEC 140800Z 32008KT 9999 FEW025 SCT040 23/17 Q1007 RMK 1CU025 3CU040 A2975
METAR RJEC 140900Z 30009KT 9999 FEW020 SCT040 22/16 Q1007 RMK 1CU020 3CU040 A2976
METAR RJEC 141000Z 31005KT 9999 FEW030 SCT/// 20/15 Q1008 RMK 1CU030 A2978
METAR RJEC 141100Z VRB02KT 9999 FEW025 SCT/// 18/15 Q1009 RMK 1CU025 A2981
METAR RJEC 141200Z AUTO 12003KT 9999 FEW036 17/15 Q1009 RMK A2981
METAR RJEC 141300Z AUTO VRB01KT 9999 NCD 16/14 Q1009 RMK A2982
METAR RJEC 141400Z AUTO 33003KT 260V030 9999 BKN019 OVC022 17/15 Q1010 RMK A2983
METAR RJEC 141500Z AUTO 04005KT 020V080 9999 FEW016 BKN020 OVC024 17/14 Q1010 RMK A2984
METAR RJEC 141600Z AUTO 03005KT 9999 SCT017 SCT019 BKN040 16/14 Q1010 RMK A2984
METAR RJEC 141700Z AUTO 12003KT 9999 FEW015 BKN020 15/14 Q1009 RMK A2981
METAR RJEC 141800Z AUTO 23003KT 9999 SCT017 BKN021 15/14 Q1009 RMK A2982
METAR RJEC 141900Z AUTO 15005KT 9000 NCD 13/13 Q1010 RMK A2983
METAR RJEC 142000Z AUTO 19003KT 170V250 9999 OVC023 17/15 Q1010 RMK A2984
METAR RJEC 142100Z AUTO 16008KT 9999 SCT023 19/15 Q1010 RMK A2982
METAR RJEC 142200Z AUTO 17008KT 140V210 9999 NCD 20/16 Q1010 RMK A2982
METAR RJEC 142300Z 18010KT 9999 FEW030 22/15 Q1009 RMK 1CU030 A2982
METAR RJEC 150000Z 17010KT 140V210 9999 FEW040 23/15 Q1009 RMK 1CU040 A2980
METAR RJEC 150100Z 17008KT 110V210 9999 FEW030 SCT/// 25/16 Q1008 RMK 1CU030 A2979
METAR RJEC 150200Z 19005KT 130V290 9999 FEW040 SCT/// 26/15 Q1008 RMK 1CU040 A2977
METAR RJEC 150300Z VRB05KT 9999 FEW030 SCT/// 27/16 Q1007 RMK 1CU030 A2976
METAR RJEC 150400Z 19006KT 150V260 9999 FEW040 SCT/// 28/16 Q1007 RMK 1CU040 A2974
METAR RJEC 150500Z 21006KT 160V310 9999 FEW040 SCT/// 29/16 Q1006 RMK 1CU040 A2972
METAR RJEC 150600Z VRB02KT 9999 FEW040 SCT/// 29/17 Q1006 RMK 1CU040 A2971
METAR RJEC 150700Z 29004KT 230V330 9999 FEW030 SCT090 BKN/// 28/19 Q1005 RMK 1CU030 3AC090 A2970
METAR RJEC 150800Z 23004KT 170V270 9999 FEW030 SCT050 BKN/// 27/18 Q1005 RMK 1CU030 3CU050 A2969
METAR RJEC 150900Z 20003KT 170V240 9999 FEW020 SCT050 BKN/// 26/17 Q1006 RMK 1CU020 3CU050 A2971
METAR RJEC 151000Z 01005KT 340V040 9999 FEW015 SCT040 BKN/// 22/18 Q1007 RMK 1ST015 3CU040 A2974
METAR RJEC 151100Z 16009KT 9999 FEW010 SCT030 BKN/// 20/16 Q1007 RMK 1ST010 3CU030 A2975
SPECI RJEC 151052Z 15010KT 9999 FEW010 SCT030 BKN/// 20/16 Q1007 RMK 1ST010 3CU030 A2975

■ TAF(飛行場予報)

TAF RJEC 151111Z 1512/1618 18006KT 9999 FEW025 SCT050
         BECMG 1521/1523 19016KT
         TEMPO 1609/1615 4000 SHRA BR FEW005 BKN008 FEW025CB

お知らせ

新着情報

  • 太陽光発電量推算
  • 気象予報士試験過去問・講座
  • Yahoo Weather shop
  • メルカリ Weather shop
  • BASE Weather shop

ご案内